sensor_id;sensor_type;location;lat;lon;timestamp;P1;durP1;ratioP1;P2;durP2;ratioP2
23565;SDS011;22140;48.988;8.544;2024-03-08T00:02:09;28.92;;;11.68;;
23565;SDS011;22140;48.988;8.544;2024-03-08T00:07:11;27.60;;;11.05;;
23565;SDS011;22140;48.988;8.544;2024-03-08T00:12:12;28.90;;;11.37;;
23565;SDS011;22140;48.988;8.544;2024-03-08T00:17:14;28.30;;;11.85;;
23565;SDS011;22140;48.988;8.544;2024-03-08T00:22:17;27.20;;;11.05;;
23565;SDS011;22140;48.988;8.544;2024-03-08T00:27:18;30.10;;;11.95;;
23565;SDS011;22140;48.988;8.544;2024-03-08T00:32:22;26.25;;;11.50;;
23565;SDS011;22140;48.988;8.544;2024-03-08T00:37:26;26.80;;;11.63;;
23565;SDS011;22140;48.988;8.544;2024-03-08T00:42:27;26.70;;;11.90;;
23565;SDS011;22140;48.988;8.544;2024-03-08T00:47:29;28.77;;;11.55;;
23565;SDS011;22140;48.988;8.544;2024-03-08T00:52:30;27.63;;;12.10;;
23565;SDS011;22140;48.988;8.544;2024-03-08T00:57:32;29.88;;;11.30;;
23565;SDS011;22140;48.988;8.544;2024-03-08T01:02:34;28.47;;;11.37;;
23565;SDS011;22140;48.988;8.544;2024-03-08T01:07:37;27.40;;;10.70;;
23565;SDS011;22140;48.988;8.544;2024-03-08T01:12:38;28.65;;;12.23;;
23565;SDS011;22140;48.988;8.544;2024-03-08T01:17:40;29.02;;;12.18;;
23565;SDS011;22140;48.988;8.544;2024-03-08T01:22:42;25.85;;;10.57;;
23565;SDS011;22140;48.988;8.544;2024-03-08T01:27:44;26.67;;;11.83;;
23565;SDS011;22140;48.988;8.544;2024-03-08T01:32:45;28.00;;;12.00;;
23565;SDS011;22140;48.988;8.544;2024-03-08T01:37:46;31.40;;;11.77;;
23565;SDS011;22140;48.988;8.544;2024-03-08T01:42:49;27.52;;;11.10;;
23565;SDS011;22140;48.988;8.544;2024-03-08T01:47:50;29.50;;;11.48;;
23565;SDS011;22140;48.988;8.544;2024-03-08T01:52:51;31.53;;;11.90;;
23565;SDS011;22140;48.988;8.544;2024-03-08T01:57:53;25.27;;;10.35;;
23565;SDS011;22140;48.988;8.544;2024-03-08T02:02:55;27.00;;;11.40;;
23565;SDS011;22140;48.988;8.544;2024-03-08T02:07:56;28.73;;;11.73;;
23565;SDS011;22140;48.988;8.544;2024-03-08T02:12:58;27.20;;;11.10;;
23565;SDS011;22140;48.988;8.544;2024-03-08T02:17:59;25.60;;;10.63;;
23565;SDS011;22140;48.988;8.544;2024-03-08T02:23:01;27.75;;;11.00;;
23565;SDS011;22140;48.988;8.544;2024-03-08T02:28:02;27.38;;;10.98;;
23565;SDS011;22140;48.988;8.544;2024-03-08T02:33:05;28.98;;;11.30;;
23565;SDS011;22140;48.988;8.544;2024-03-08T02:38:06;25.00;;;10.98;;
23565;SDS011;22140;48.988;8.544;2024-03-08T02:43:08;27.63;;;11.07;;
23565;SDS011;22140;48.988;8.544;2024-03-08T02:48:10;26.23;;;11.25;;
23565;SDS011;22140;48.988;8.544;2024-03-08T02:53:12;28.20;;;11.57;;
23565;SDS011;22140;48.988;8.544;2024-03-08T02:58:14;27.27;;;11.40;;
23565;SDS011;22140;48.988;8.544;2024-03-08T03:03:16;25.05;;;10.43;;
23565;SDS011;22140;48.988;8.544;2024-03-08T03:08:17;26.73;;;10.77;;
23565;SDS011;22140;48.988;8.544;2024-03-08T03:13:19;27.92;;;11.15;;
23565;SDS011;22140;48.988;8.544;2024-03-08T03:18:20;29.30;;;11.00;;
23565;SDS011;22140;48.988;8.544;2024-03-08T03:23:25;32.42;;;11.35;;
23565;SDS011;22140;48.988;8.544;2024-03-08T03:28:27;29.15;;;11.40;;
23565;SDS011;22140;48.988;8.544;2024-03-08T03:33:29;29.23;;;11.40;;
23565;SDS011;22140;48.988;8.544;2024-03-08T03:38:31;28.48;;;10.45;;
23565;SDS011;22140;48.988;8.544;2024-03-08T03:43:36;30.42;;;11.77;;
23565;SDS011;22140;48.988;8.544;2024-03-08T03:48:40;29.20;;;11.68;;
23565;SDS011;22140;48.988;8.544;2024-03-08T03:53:43;27.98;;;11.60;;
23565;SDS011;22140;48.988;8.544;2024-03-08T03:58:45;25.27;;;9.73;;
23565;SDS011;22140;48.988;8.544;2024-03-08T04:03:46;26.30;;;11.18;;
23565;SDS011;22140;48.988;8.544;2024-03-08T04:08:48;28.02;;;11.27;;
23565;SDS011;22140;48.988;8.544;2024-03-08T04:13:50;30.30;;;11.25;;
23565;SDS011;22140;48.988;8.544;2024-03-08T04:18:51;30.75;;;11.43;;
23565;SDS011;22140;48.988;8.544;2024-03-08T04:23:53;28.07;;;10.87;;
23565;SDS011;22140;48.988;8.544;2024-03-08T04:28:54;28.73;;;11.35;;
23565;SDS011;22140;48.988;8.544;2024-03-08T04:33:55;26.90;;;11.07;;
23565;SDS011;22140;48.988;8.544;2024-03-08T04:38:57;26.45;;;10.45;;
23565;SDS011;22140;48.988;8.544;2024-03-08T04:43:58;28.20;;;10.77;;
23565;SDS011;22140;48.988;8.544;2024-03-08T04:49:00;28.33;;;10.93;;
23565;SDS011;22140;48.988;8.544;2024-03-08T04:54:01;27.33;;;10.43;;
23565;SDS011;22140;48.988;8.544;2024-03-08T04:59:03;25.33;;;10.38;;
23565;SDS011;22140;48.988;8.544;2024-03-08T05:04:04;24.27;;;10.60;;
23565;SDS011;22140;48.988;8.544;2024-03-08T05:09:10;26.05;;;10.02;;
23565;SDS011;22140;48.988;8.544;2024-03-08T05:14:15;25.83;;;9.93;;
23565;SDS011;22140;48.988;8.544;2024-03-08T05:19:21;23.98;;;9.50;;
23565;SDS011;22140;48.988;8.544;2024-03-08T05:24:23;25.80;;;10.15;;
23565;SDS011;22140;48.988;8.544;2024-03-08T05:29:24;25.77;;;10.32;;
23565;SDS011;22140;48.988;8.544;2024-03-08T05:34:26;27.90;;;10.18;;
23565;SDS011;22140;48.988;8.544;2024-03-08T05:39:29;26.83;;;10.33;;
23565;SDS011;22140;48.988;8.544;2024-03-08T05:44:31;26.58;;;10.57;;
23565;SDS011;22140;48.988;8.544;2024-03-08T05:49:32;25.08;;;9.75;;
23565;SDS011;22140;48.988;8.544;2024-03-08T05:54:35;25.60;;;10.05;;
23565;SDS011;22140;48.988;8.544;2024-03-08T05:59:36;29.30;;;10.68;;
23565;SDS011;22140;48.988;8.544;2024-03-08T06:04:37;25.80;;;10.50;;
23565;SDS011;22140;48.988;8.544;2024-03-08T06:09:39;29.45;;;11.02;;
23565;SDS011;22140;48.988;8.544;2024-03-08T06:14:41;27.15;;;10.30;;
23565;SDS011;22140;48.988;8.544;2024-03-08T06:19:42;26.65;;;10.35;;
23565;SDS011;22140;48.988;8.544;2024-03-08T06:24:43;31.00;;;11.00;;
23565;SDS011;22140;48.988;8.544;2024-03-08T06:29:45;24.57;;;10.53;;
23565;SDS011;22140;48.988;8.544;2024-03-08T06:34:46;25.88;;;10.50;;
23565;SDS011;22140;48.988;8.544;2024-03-08T06:39:48;25.77;;;10.10;;
23565;SDS011;22140;48.988;8.544;2024-03-08T06:44:49;27.50;;;10.45;;
23565;SDS011;22140;48.988;8.544;2024-03-08T06:49:51;26.83;;;10.77;;
23565;SDS011;22140;48.988;8.544;2024-03-08T06:54:53;26.60;;;10.17;;
23565;SDS011;22140;48.988;8.544;2024-03-08T06:59:54;25.45;;;10.00;;
23565;SDS011;22140;48.988;8.544;2024-03-08T07:04:56;28.58;;;10.65;;
23565;SDS011;22140;48.988;8.544;2024-03-08T07:09:57;24.98;;;10.05;;
23565;SDS011;22140;48.988;8.544;2024-03-08T07:14:58;29.00;;;10.10;;
23565;SDS011;22140;48.988;8.544;2024-03-08T07:20:00;23.80;;;10.27;;
23565;SDS011;22140;48.988;8.544;2024-03-08T07:25:06;26.38;;;10.52;;
23565;SDS011;22140;48.988;8.544;2024-03-08T07:30:26;26.75;;;10.60;;
23565;SDS011;22140;48.988;8.544;2024-03-08T07:35:46;30.65;;;10.95;;
23565;SDS011;22140;48.988;8.544;2024-03-08T07:40:48;26.80;;;11.20;;
23565;SDS011;22140;48.988;8.544;2024-03-08T07:45:49;31.83;;;11.47;;
23565;SDS011;22140;48.988;8.544;2024-03-08T07:50:52;28.02;;;11.20;;
23565;SDS011;22140;48.988;8.544;2024-03-08T07:55:53;27.27;;;11.20;;
23565;SDS011;22140;48.988;8.544;2024-03-08T08:00:55;30.42;;;10.95;;
23565;SDS011;22140;48.988;8.544;2024-03-08T08:05:56;25.38;;;10.77;;
23565;SDS011;22140;48.988;8.544;2024-03-08T08:10:58;24.93;;;10.50;;
23565;SDS011;22140;48.988;8.544;2024-03-08T08:15:59;24.42;;;10.30;;
23565;SDS011;22140;48.988;8.544;2024-03-08T08:21:01;26.42;;;10.75;;
23565;SDS011;22140;48.988;8.544;2024-03-08T08:26:03;26.33;;;11.18;;
23565;SDS011;22140;48.988;8.544;2024-03-08T08:31:05;31.38;;;11.63;;
23565;SDS011;22140;48.988;8.544;2024-03-08T08:36:07;27.90;;;11.07;;
23565;SDS011;22140;48.988;8.544;2024-03-08T08:41:09;28.88;;;11.57;;
23565;SDS011;22140;48.988;8.544;2024-03-08T08:46:10;28.05;;;10.60;;
23565;SDS011;22140;48.988;8.544;2024-03-08T08:51:14;23.10;;;10.20;;
23565;SDS011;22140;48.988;8.544;2024-03-08T08:56:19;24.13;;;9.98;;
23565;SDS011;22140;48.988;8.544;2024-03-08T09:01:20;27.67;;;10.57;;
23565;SDS011;22140;48.988;8.544;2024-03-08T09:06:22;28.25;;;10.98;;
23565;SDS011;22140;48.988;8.544;2024-03-08T09:11:23;26.58;;;10.40;;
23565;SDS011;22140;48.988;8.544;2024-03-08T09:16:27;25.92;;;10.18;;
23565;SDS011;22140;48.988;8.544;2024-03-08T09:21:29;24.05;;;9.90;;
23565;SDS011;22140;48.988;8.544;2024-03-08T09:26:31;24.87;;;9.67;;
23565;SDS011;22140;48.988;8.544;2024-03-08T09:31:33;23.33;;;10.30;;
23565;SDS011;22140;48.988;8.544;2024-03-08T09:36:35;23.58;;;10.15;;
23565;SDS011;22140;48.988;8.544;2024-03-08T09:41:36;29.35;;;10.40;;
23565;SDS011;22140;48.988;8.544;2024-03-08T09:46:40;30.13;;;11.23;;
23565;SDS011;22140;48.988;8.544;2024-03-08T09:51:41;23.47;;;9.83;;
23565;SDS011;22140;48.988;8.544;2024-03-08T09:56:43;23.95;;;9.98;;
23565;SDS011;22140;48.988;8.544;2024-03-08T10:01:46;23.25;;;10.23;;
23565;SDS011;22140;48.988;8.544;2024-03-08T10:06:47;22.98;;;9.95;;
23565;SDS011;22140;48.988;8.544;2024-03-08T10:11:49;20.70;;;9.32;;
23565;SDS011;22140;48.988;8.544;2024-03-08T10:16:51;26.43;;;9.93;;
23565;SDS011;22140;48.988;8.544;2024-03-08T10:21:53;23.00;;;9.70;;
23565;SDS011;22140;48.988;8.544;2024-03-08T10:26:58;20.15;;;9.27;;
23565;SDS011;22140;48.988;8.544;2024-03-08T10:32:01;24.20;;;10.43;;
23565;SDS011;22140;48.988;8.544;2024-03-08T10:37:03;22.70;;;9.82;;
23565;SDS011;22140;48.988;8.544;2024-03-08T10:42:05;23.70;;;10.57;;
23565;SDS011;22140;48.988;8.544;2024-03-08T10:47:19;22.33;;;9.80;;
23565;SDS011;22140;48.988;8.544;2024-03-08T10:52:26;22.88;;;9.93;;
23565;SDS011;22140;48.988;8.544;2024-03-08T10:57:27;23.92;;;9.65;;
23565;SDS011;22140;48.988;8.544;2024-03-08T11:02:29;22.25;;;8.85;;
23565;SDS011;22140;48.988;8.544;2024-03-08T11:07:34;24.20;;;9.70;;
23565;SDS011;22140;48.988;8.544;2024-03-08T11:12:36;23.08;;;9.95;;
23565;SDS011;22140;48.988;8.544;2024-03-08T11:22:41;24.38;;;9.30;;
23565;SDS011;22140;48.988;8.544;2024-03-08T11:27:52;22.73;;;9.90;;
23565;SDS011;22140;48.988;8.544;2024-03-08T11:32:54;22.07;;;9.50;;
23565;SDS011;22140;48.988;8.544;2024-03-08T11:37:57;25.73;;;10.25;;
23565;SDS011;22140;48.988;8.544;2024-03-08T11:43:00;25.13;;;9.32;;
23565;SDS011;22140;48.988;8.544;2024-03-08T11:48:04;23.17;;;9.57;;
23565;SDS011;22140;48.988;8.544;2024-03-08T11:53:06;23.75;;;9.57;;
23565;SDS011;22140;48.988;8.544;2024-03-08T11:58:07;21.37;;;9.90;;
23565;SDS011;22140;48.988;8.544;2024-03-08T12:03:09;23.27;;;10.07;;
23565;SDS011;22140;48.988;8.544;2024-03-08T12:08:13;22.45;;;9.65;;
23565;SDS011;22140;48.988;8.544;2024-03-08T12:13:14;29.30;;;10.45;;
23565;SDS011;22140;48.988;8.544;2024-03-08T12:18:17;22.00;;;9.48;;
23565;SDS011;22140;48.988;8.544;2024-03-08T12:23:19;28.60;;;9.33;;
23565;SDS011;22140;48.988;8.544;2024-03-08T12:28:20;24.20;;;10.35;;
23565;SDS011;22140;48.988;8.544;2024-03-08T12:33:23;24.83;;;10.75;;
23565;SDS011;22140;48.988;8.544;2024-03-08T12:38:27;21.67;;;9.43;;
23565;SDS011;22140;48.988;8.544;2024-03-08T12:43:29;21.98;;;9.77;;
23565;SDS011;22140;48.988;8.544;2024-03-08T12:48:35;19.80;;;8.93;;
23565;SDS011;22140;48.988;8.544;2024-03-08T12:53:42;25.10;;;10.52;;
23565;SDS011;22140;48.988;8.544;2024-03-08T12:58:45;22.55;;;9.40;;
23565;SDS011;22140;48.988;8.544;2024-03-08T13:03:46;23.90;;;9.98;;
23565;SDS011;22140;48.988;8.544;2024-03-08T13:08:50;24.05;;;9.38;;
23565;SDS011;22140;48.988;8.544;2024-03-08T13:13:52;23.00;;;9.97;;
23565;SDS011;22140;48.988;8.544;2024-03-08T13:18:56;22.65;;;9.80;;
23565;SDS011;22140;48.988;8.544;2024-03-08T13:23:58;28.15;;;9.77;;
23565;SDS011;22140;48.988;8.544;2024-03-08T13:29:02;20.87;;;9.83;;
23565;SDS011;22140;48.988;8.544;2024-03-08T13:34:04;23.80;;;9.35;;
23565;SDS011;22140;48.988;8.544;2024-03-08T13:39:06;21.70;;;9.57;;
23565;SDS011;22140;48.988;8.544;2024-03-08T13:44:16;24.48;;;9.95;;
23565;SDS011;22140;48.988;8.544;2024-03-08T13:49:18;23.23;;;9.63;;
23565;SDS011;22140;48.988;8.544;2024-03-08T13:54:20;26.40;;;10.18;;
23565;SDS011;22140;48.988;8.544;2024-03-08T13:59:22;22.00;;;9.55;;
23565;SDS011;22140;48.988;8.544;2024-03-08T14:04:23;26.17;;;10.23;;
23565;SDS011;22140;48.988;8.544;2024-03-08T14:09:26;20.85;;;8.50;;
23565;SDS011;22140;48.988;8.544;2024-03-08T14:14:27;22.50;;;9.75;;
23565;SDS011;22140;48.988;8.544;2024-03-08T14:19:28;22.67;;;10.02;;
23565;SDS011;22140;48.988;8.544;2024-03-08T14:24:32;21.80;;;8.90;;
23565;SDS011;22140;48.988;8.544;2024-03-08T14:29:36;21.80;;;9.07;;
23565;SDS011;22140;48.988;8.544;2024-03-08T14:34:38;22.10;;;9.70;;
23565;SDS011;22140;48.988;8.544;2024-03-08T14:39:40;21.65;;;9.30;;
23565;SDS011;22140;48.988;8.544;2024-03-08T14:44:41;24.25;;;9.77;;
23565;SDS011;22140;48.988;8.544;2024-03-08T14:49:42;23.95;;;10.30;;
23565;SDS011;22140;48.988;8.544;2024-03-08T14:54:44;21.97;;;9.73;;
23565;SDS011;22140;48.988;8.544;2024-03-08T14:59:45;22.60;;;9.80;;
23565;SDS011;22140;48.988;8.544;2024-03-08T15:04:47;25.42;;;10.00;;
23565;SDS011;22140;48.988;8.544;2024-03-08T15:09:58;24.05;;;9.63;;
23565;SDS011;22140;48.988;8.544;2024-03-08T15:14:59;24.48;;;9.85;;
23565;SDS011;22140;48.988;8.544;2024-03-08T15:20:01;22.27;;;9.33;;
23565;SDS011;22140;48.988;8.544;2024-03-08T15:25:02;23.17;;;9.95;;
23565;SDS011;22140;48.988;8.544;2024-03-08T15:30:04;22.75;;;9.20;;
23565;SDS011;22140;48.988;8.544;2024-03-08T15:35:09;25.70;;;9.77;;
23565;SDS011;22140;48.988;8.544;2024-03-08T15:40:14;26.70;;;10.20;;
23565;SDS011;22140;48.988;8.544;2024-03-08T15:45:25;25.90;;;9.83;;
23565;SDS011;22140;48.988;8.544;2024-03-08T15:50:29;24.25;;;8.98;;
23565;SDS011;22140;48.988;8.544;2024-03-08T15:55:30;25.42;;;9.73;;
23565;SDS011;22140;48.988;8.544;2024-03-08T16:00:32;22.93;;;9.23;;
23565;SDS011;22140;48.988;8.544;2024-03-08T16:06:00;23.45;;;9.32;;
23565;SDS011;22140;48.988;8.544;2024-03-08T16:11:01;21.47;;;8.93;;
23565;SDS011;22140;48.988;8.544;2024-03-08T16:16:07;24.38;;;8.73;;
23565;SDS011;22140;48.988;8.544;2024-03-08T16:21:08;24.75;;;10.45;;
23565;SDS011;22140;48.988;8.544;2024-03-08T16:26:10;22.48;;;8.82;;
23565;SDS011;22140;48.988;8.544;2024-03-08T16:31:11;22.45;;;9.60;;
23565;SDS011;22140;48.988;8.544;2024-03-08T16:36:15;26.20;;;10.37;;
23565;SDS011;22140;48.988;8.544;2024-03-08T16:41:18;23.20;;;9.80;;
23565;SDS011;22140;48.988;8.544;2024-03-08T16:46:19;22.15;;;9.18;;
23565;SDS011;22140;48.988;8.544;2024-03-08T16:51:22;25.03;;;10.40;;
23565;SDS011;22140;48.988;8.544;2024-03-08T16:56:23;29.42;;;11.63;;
23565;SDS011;22140;48.988;8.544;2024-03-08T17:01:25;25.97;;;9.87;;
23565;SDS011;22140;48.988;8.544;2024-03-08T17:06:27;26.73;;;10.60;;
23565;SDS011;22140;48.988;8.544;2024-03-08T17:11:29;24.27;;;10.18;;
23565;SDS011;22140;48.988;8.544;2024-03-08T17:16:31;27.23;;;10.63;;
23565;SDS011;22140;48.988;8.544;2024-03-08T17:21:33;27.17;;;10.65;;
23565;SDS011;22140;48.988;8.544;2024-03-08T17:26:34;34.93;;;12.67;;
23565;SDS011;22140;48.988;8.544;2024-03-08T17:31:35;28.50;;;12.13;;
23565;SDS011;22140;48.988;8.544;2024-03-08T17:36:37;28.30;;;11.02;;
23565;SDS011;22140;48.988;8.544;2024-03-08T17:41:38;28.08;;;10.75;;
23565;SDS011;22140;48.988;8.544;2024-03-08T17:46:41;32.78;;;11.15;;
23565;SDS011;22140;48.988;8.544;2024-03-08T17:51:44;28.47;;;10.53;;
23565;SDS011;22140;48.988;8.544;2024-03-08T17:56:46;28.67;;;11.90;;
23565;SDS011;22140;48.988;8.544;2024-03-08T18:01:47;30.23;;;11.45;;
23565;SDS011;22140;48.988;8.544;2024-03-08T18:06:49;26.02;;;11.52;;
23565;SDS011;22140;48.988;8.544;2024-03-08T18:11:54;36.70;;;13.38;;
23565;SDS011;22140;48.988;8.544;2024-03-08T18:16:57;30.23;;;11.53;;
23565;SDS011;22140;48.988;8.544;2024-03-08T18:21:58;34.03;;;13.20;;
23565;SDS011;22140;48.988;8.544;2024-03-08T18:26:59;27.00;;;11.98;;
23565;SDS011;22140;48.988;8.544;2024-03-08T18:32:01;32.45;;;12.85;;
23565;SDS011;22140;48.988;8.544;2024-03-08T18:37:03;32.80;;;13.00;;
23565;SDS011;22140;48.988;8.544;2024-03-08T18:42:06;32.50;;;13.90;;
23565;SDS011;22140;48.988;8.544;2024-03-08T18:47:07;34.50;;;13.77;;
23565;SDS011;22140;48.988;8.544;2024-03-08T18:52:09;33.13;;;13.80;;
23565;SDS011;22140;48.988;8.544;2024-03-08T18:57:10;32.90;;;14.18;;
23565;SDS011;22140;48.988;8.544;2024-03-08T19:02:11;42.78;;;16.10;;
23565;SDS011;22140;48.988;8.544;2024-03-08T19:07:14;39.83;;;18.23;;
23565;SDS011;22140;48.988;8.544;2024-03-08T19:12:16;38.42;;;16.33;;
23565;SDS011;22140;48.988;8.544;2024-03-08T19:17:18;52.10;;;17.67;;
23565;SDS011;22140;48.988;8.544;2024-03-08T19:22:19;46.47;;;17.95;;
23565;SDS011;22140;48.988;8.544;2024-03-08T19:27:21;42.28;;;15.25;;
23565;SDS011;22140;48.988;8.544;2024-03-08T19:32:23;35.47;;;14.13;;
23565;SDS011;22140;48.988;8.544;2024-03-08T19:37:25;38.58;;;14.35;;
23565;SDS011;22140;48.988;8.544;2024-03-08T19:42:27;29.30;;;12.80;;
23565;SDS011;22140;48.988;8.544;2024-03-08T19:47:28;34.08;;;14.70;;
23565;SDS011;22140;48.988;8.544;2024-03-08T19:52:30;35.10;;;14.70;;
23565;SDS011;22140;48.988;8.544;2024-03-08T19:57:32;29.27;;;11.63;;
23565;SDS011;22140;48.988;8.544;2024-03-08T20:02:33;31.40;;;12.15;;
23565;SDS011;22140;48.988;8.544;2024-03-08T20:07:35;30.25;;;11.23;;
23565;SDS011;22140;48.988;8.544;2024-03-08T20:12:37;25.30;;;10.88;;
23565;SDS011;22140;48.988;8.544;2024-03-08T20:17:40;26.77;;;10.93;;
23565;SDS011;22140;48.988;8.544;2024-03-08T20:27:56;31.98;;;12.65;;
23565;SDS011;22140;48.988;8.544;2024-03-08T20:32:58;30.42;;;12.05;;
23565;SDS011;22140;48.988;8.544;2024-03-08T20:38:01;30.20;;;12.68;;
23565;SDS011;22140;48.988;8.544;2024-03-08T20:43:06;33.00;;;13.20;;
23565;SDS011;22140;48.988;8.544;2024-03-08T20:48:17;33.33;;;13.67;;
23565;SDS011;22140;48.988;8.544;2024-03-08T20:53:21;35.75;;;14.38;;
23565;SDS011;22140;48.988;8.544;2024-03-08T20:58:22;33.10;;;13.80;;
23565;SDS011;22140;48.988;8.544;2024-03-08T21:03:24;35.40;;;13.88;;
23565;SDS011;22140;48.988;8.544;2024-03-08T21:08:28;35.72;;;15.40;;
23565;SDS011;22140;48.988;8.544;2024-03-08T21:13:30;36.40;;;14.07;;
23565;SDS011;22140;48.988;8.544;2024-03-08T21:18:32;38.88;;;16.38;;
23565;SDS011;22140;48.988;8.544;2024-03-08T21:23:34;47.55;;;19.30;;
23565;SDS011;22140;48.988;8.544;2024-03-08T21:28:35;43.72;;;18.15;;
23565;SDS011;22140;48.988;8.544;2024-03-08T21:33:38;42.53;;;17.20;;
23565;SDS011;22140;48.988;8.544;2024-03-08T21:38:39;50.33;;;19.33;;
23565;SDS011;22140;48.988;8.544;2024-03-08T21:43:41;42.38;;;17.40;;
23565;SDS011;22140;48.988;8.544;2024-03-08T21:48:42;41.28;;;16.98;;
23565;SDS011;22140;48.988;8.544;2024-03-08T21:53:44;42.65;;;17.48;;
23565;SDS011;22140;48.988;8.544;2024-03-08T21:58:45;38.42;;;16.50;;
23565;SDS011;22140;48.988;8.544;2024-03-08T22:03:47;36.37;;;16.20;;
23565;SDS011;22140;48.988;8.544;2024-03-08T22:08:48;42.15;;;18.08;;
23565;SDS011;22140;48.988;8.544;2024-03-08T22:13:49;37.42;;;16.23;;
23565;SDS011;22140;48.988;8.544;2024-03-08T22:18:51;32.38;;;14.25;;
23565;SDS011;22140;48.988;8.544;2024-03-08T22:23:54;32.50;;;15.50;;
23565;SDS011;22140;48.988;8.544;2024-03-08T22:28:55;45.53;;;21.47;;
23565;SDS011;22140;48.988;8.544;2024-03-08T22:33:57;47.50;;;21.05;;
23565;SDS011;22140;48.988;8.544;2024-03-08T22:38:58;43.05;;;19.85;;
23565;SDS011;22140;48.988;8.544;2024-03-08T22:43:59;48.35;;;21.73;;
23565;SDS011;22140;48.988;8.544;2024-03-08T22:49:01;38.90;;;16.25;;
23565;SDS011;22140;48.988;8.544;2024-03-08T22:54:04;39.90;;;17.03;;
23565;SDS011;22140;48.988;8.544;2024-03-08T22:59:05;32.75;;;12.65;;
23565;SDS011;22140;48.988;8.544;2024-03-08T23:04:07;28.05;;;12.80;;
23565;SDS011;22140;48.988;8.544;2024-03-08T23:09:10;25.80;;;11.10;;
23565;SDS011;22140;48.988;8.544;2024-03-08T23:14:14;32.28;;;12.90;;
23565;SDS011;22140;48.988;8.544;2024-03-08T23:19:16;31.23;;;12.37;;
23565;SDS011;22140;48.988;8.544;2024-03-08T23:24:18;30.30;;;11.98;;
23565;SDS011;22140;48.988;8.544;2024-03-08T23:29:20;28.42;;;11.38;;
23565;SDS011;22140;48.988;8.544;2024-03-08T23:34:22;26.20;;;12.05;;
23565;SDS011;22140;48.988;8.544;2024-03-08T23:39:25;28.67;;;12.40;;
23565;SDS011;22140;48.988;8.544;2024-03-08T23:44:27;23.50;;;10.60;;
23565;SDS011;22140;48.988;8.544;2024-03-08T23:49:30;25.52;;;10.38;;
23565;SDS011;22140;48.988;8.544;2024-03-08T23:54:31;25.30;;;12.48;;
23565;SDS011;22140;48.988;8.544;2024-03-08T23:59:33;25.90;;;10.93;;
